createdAt,value
2023-04-14T00:02:50.847Z,99321.66
2023-04-14T00:07:55.022Z,99312.84
2023-04-14T00:12:57.838Z,99327.47
2023-04-14T00:18:00.703Z,99319.63
2023-04-14T00:23:04.897Z,99331.41
2023-04-14T00:28:07.890Z,99315.63
2023-04-14T00:33:10.711Z,99327.56
2023-04-14T00:38:14.867Z,99318.72
2023-04-14T00:43:19.474Z,99316.19
2023-04-14T00:48:23.383Z,99311.91
2023-04-14T00:53:28.323Z,99320.56
2023-04-14T00:58:31.880Z,99317.84
2023-04-14T01:03:37.229Z,99324.50
2023-04-14T01:08:41.764Z,99316.56
2023-04-14T01:13:55.129Z,99323.28
2023-04-14T01:19:07.727Z,99334.06
2023-04-14T01:24:31.665Z,99328.22
2023-04-14T01:30:02.273Z,99330.47
2023-04-14T01:35:14.078Z,99338.41
2023-04-14T01:40:19.384Z,99340.63
2023-04-14T01:45:26.411Z,99338.09
2023-04-14T01:50:33.556Z,99349.38
2023-04-14T01:55:39.688Z,99349.38
2023-04-14T02:00:45.487Z,99350.25
2023-04-14T02:05:52.542Z,99354.16
2023-04-14T02:10:57.211Z,99357.72
2023-04-14T02:16:01.792Z,99355.41
2023-04-14T02:21:06.957Z,99355.56
2023-04-14T02:26:13.996Z,99336.97
2023-04-14T02:31:23.685Z,99337.09
2023-04-14T02:36:35.516Z,99328.53
2023-04-14T02:41:41.344Z,99322.19
2023-04-14T02:46:52.697Z,99316.91
2023-04-14T02:51:58.392Z,99306.44
2023-04-14T02:57:02.173Z,99320.03
2023-04-14T03:02:09.268Z,99315.59
2023-04-14T03:07:20.358Z,99315.03
2023-04-14T03:12:26.343Z,99316.03
2023-04-14T03:17:30.910Z,99316.97
2023-04-14T03:22:40.668Z,99318.97
2023-04-14T03:27:48.180Z,99313.56
2023-04-14T03:32:52.006Z,99301.34
2023-04-14T03:37:59.884Z,99299.66
2023-04-14T03:43:05.154Z,99304.03
2023-04-14T03:48:12.842Z,99308.97
2023-04-14T03:53:23.040Z,99313.50
2023-04-14T03:58:27.936Z,99319.72
2023-04-14T04:03:33.488Z,99324.78
2023-04-14T04:08:41.517Z,99312.06
2023-04-14T04:13:48.536Z,99308.50
2023-04-14T04:18:51.839Z,99302.41
2023-04-14T04:24:03.100Z,99311.47
2023-04-14T04:29:07.505Z,99305.22
2023-04-14T04:34:11.487Z,99302.66
2023-04-14T04:39:17.007Z,99309.25
2023-04-14T04:44:20.406Z,99309.16
2023-04-14T04:49:24.251Z,99330.78
2023-04-14T04:54:29.959Z,99339.84
2023-04-14T04:59:33.021Z,99340.81
2023-04-14T05:04:35.873Z,99354.41
2023-04-14T05:09:39.995Z,99341.94
2023-04-14T05:14:42.784Z,99344.75
2023-04-14T05:19:45.648Z,99347.56
2023-04-14T05:24:51.455Z,99347.56
2023-04-14T05:29:54.429Z,99351.97
2023-04-14T05:34:57.719Z,99352.22
2023-04-14T05:40:02.312Z,99359.56
2023-04-14T05:45:05.864Z,99352.22
2023-04-14T05:50:09.495Z,99350.66
2023-04-14T05:55:13.843Z,99342.56
2023-04-14T06:00:17.189Z,99350.66
2023-04-14T06:05:20.244Z,99345.28
2023-04-14T06:10:24.458Z,99345.38
2023-04-14T06:15:29.571Z,99350.88
2023-04-14T06:20:32.832Z,99344.53
2023-04-14T06:25:37.089Z,99332.91
2023-04-14T06:30:40.014Z,99332.19
2023-04-14T06:35:43.736Z,99326.66
2023-04-14T06:40:48.063Z,99324.97
2023-04-14T06:45:51.505Z,99323.13
2023-04-14T06:50:55.708Z,99323.97
2023-04-14T06:56:02.715Z,99339.03
2023-04-14T07:01:05.644Z,99336.34
2023-04-14T07:06:11.626Z,99340.53
2023-04-14T07:11:15.893Z,99342.97
2023-04-14T07:16:18.737Z,99343.69
2023-04-14T07:21:21.648Z,99341.03
2023-04-14T07:26:25.885Z,99339.94
2023-04-14T07:31:29.262Z,99335.66
2023-04-14T07:36:32.750Z,99359.03
2023-04-14T07:41:37.464Z,99355.38
2023-04-14T07:46:40.511Z,99360.44
2023-04-14T07:51:43.842Z,99359.84
2023-04-14T07:56:48.649Z,99370.25
2023-04-14T08:01:51.876Z,99371.13
2023-04-14T08:06:54.772Z,99366.75
2023-04-14T08:11:59.379Z,99372.25
2023-04-14T08:17:02.229Z,99368.94
2023-04-14T08:22:05.011Z,99364.78
2023-04-14T08:27:09.161Z,99365.25
2023-04-14T08:32:13.254Z,99364.03
2023-04-14T08:37:16.828Z,99360.97
2023-04-14T08:42:22.027Z,99355.34
2023-04-14T08:47:27.365Z,99337.13
2023-04-14T08:52:31.838Z,99341.28
2023-04-14T08:57:36.428Z,99348.94
2023-04-14T09:02:41.016Z,99355.06
2023-04-14T09:07:44.137Z,99352.00
2023-04-14T09:12:49.755Z,99360.56
2023-04-14T09:17:52.755Z,99361.28
2023-04-14T09:22:55.914Z,99355.63
2023-04-14T09:28:00.409Z,99359.91
2023-04-14T09:33:06.369Z,99348.88
2023-04-14T09:38:09.205Z,99351.47
2023-04-14T09:43:26.957Z,99352.06
2023-04-14T09:48:29.945Z,99352.53
2023-04-14T09:53:34.018Z,99355.13
2023-04-14T09:58:41.439Z,99358.53
2023-04-14T10:03:46.384Z,99361.84
2023-04-14T10:08:50.679Z,99376.16
2023-04-14T10:13:57.007Z,99360.38
2023-04-14T10:19:01.456Z,99356.47
2023-04-14T10:24:04.772Z,99364.88
2023-04-14T10:29:09.148Z,99359.09
2023-04-14T10:34:13.637Z,99357.38
2023-04-14T10:39:22.356Z,99343.91
2023-04-14T10:44:28.594Z,99342.44
2023-04-14T10:49:33.180Z,99343.66
2023-04-14T10:54:53.754Z,99344.50
2023-04-14T10:59:59.805Z,99345.81
2023-04-14T11:05:05.067Z,99339.44
2023-04-14T11:10:28.723Z,99329.06
2023-04-14T11:15:50.753Z,99320.13
2023-04-14T11:20:54.118Z,99318.19
2023-04-14T11:25:57.997Z,99321.13
2023-04-14T11:31:03.664Z,99320.88
2023-04-14T11:36:08.086Z,99305.69
2023-04-14T11:41:11.188Z,99298.75
2023-04-14T11:46:15.598Z,99295.66
2023-04-14T11:51:20.118Z,99296.81
2023-04-14T11:56:23.121Z,99291.75
2023-04-14T12:01:27.428Z,99289.53
2023-04-14T12:06:36.322Z,99285.31
2023-04-14T12:11:39.136Z,99280.72
2023-04-14T12:16:43.610Z,99278.69
2023-04-14T12:21:53.420Z,99273.34
2023-04-14T12:26:57.112Z,99268.50
2023-04-14T12:32:01.598Z,99253.78
2023-04-14T12:37:09.656Z,99261.59
2023-04-14T12:42:12.522Z,99257.78
2023-04-14T12:47:28.381Z,99252.97
2023-04-14T12:52:35.877Z,99244.31
2023-04-14T12:57:38.693Z,99241.22
2023-04-14T13:02:44.844Z,99240.63
2023-04-14T13:07:49.537Z,99237.66
2023-04-14T13:12:52.419Z,99242.06
2023-04-14T13:17:56.670Z,99234.16
2023-04-14T13:22:59.417Z,99225.78
2023-04-14T13:28:02.183Z,99228.38
2023-04-14T13:33:06.572Z,99223.16
2023-04-14T13:38:09.572Z,99214.09
2023-04-14T13:43:14.186Z,99210.59
2023-04-14T13:48:18.504Z,99211.44
2023-04-14T13:53:21.568Z,99210.69
2023-04-14T13:58:25.395Z,99202.63
2023-04-14T14:03:31.471Z,99202.66
2023-04-14T14:08:37.758Z,99209.91
2023-04-14T14:13:40.876Z,99207.31
2023-04-14T14:18:46.461Z,99211.25
2023-04-14T14:23:49.614Z,99210.69
2023-04-14T14:28:52.416Z,99200.38
2023-04-14T14:33:56.611Z,99206.47
2023-04-14T14:38:59.486Z,99209.06
2023-04-14T14:44:02.369Z,99202.81
2023-04-14T14:49:06.654Z,99208.91
2023-04-14T14:54:10.491Z,99212.19
2023-04-14T14:59:13.562Z,99210.91
2023-04-14T15:04:18.463Z,99208.16
2023-04-14T15:09:21.407Z,99209.34
2023-04-14T15:14:24.887Z,99215.28
2023-04-14T15:19:29.207Z,99215.44
2023-04-14T15:24:33.124Z,99212.88
2023-04-14T15:29:36.000Z,99212.16
2023-04-14T15:34:40.527Z,99211.19
2023-04-14T15:39:43.363Z,99212.59
2023-04-14T15:44:46.288Z,99216.72
2023-04-14T15:50:09.807Z,99221.09
2023-04-14T15:55:13.840Z,99217.41
2023-04-14T16:00:17.097Z,99220.09
2023-04-14T16:05:21.391Z,99224.91
2023-04-14T16:10:24.263Z,99222.66
2023-04-14T16:15:27.480Z,99228.31
2023-04-14T16:20:31.792Z,99231.47
2023-04-14T16:25:34.604Z,99236.28
2023-04-14T16:30:37.821Z,99231.63
2023-04-14T16:35:42.632Z,99230.22
2023-04-14T16:40:45.550Z,99238.00
2023-04-14T16:45:48.652Z,99237.78
2023-04-14T16:50:54.044Z,99234.78
2023-04-14T16:56:03.367Z,99243.72
2023-04-14T17:01:07.455Z,99246.84
2023-04-14T17:06:11.719Z,99243.97
2023-04-14T17:11:15.169Z,99239.97
2023-04-14T17:16:17.945Z,99231.06
2023-04-14T17:21:22.223Z,99236.03
2023-04-14T17:26:24.976Z,99235.16
2023-04-14T17:31:28.001Z,99236.28
2023-04-14T17:36:32.189Z,99226.50
2023-04-14T17:41:34.990Z,99234.03
2023-04-14T17:46:38.383Z,99230.31
2023-04-14T17:51:42.603Z,99234.88
2023-04-14T17:56:45.416Z,99229.06
2023-04-14T18:01:48.349Z,99233.03
2023-04-14T18:06:52.692Z,99237.16
2023-04-14T18:11:56.249Z,99244.09
2023-04-14T18:29:21.238Z,99238.72
2023-04-14T18:34:24.151Z,99243.66
2023-04-14T18:39:28.662Z,99235.88
2023-04-14T18:44:31.530Z,99236.56
2023-04-14T18:49:34.481Z,99232.63
2023-04-14T18:54:38.885Z,99239.09
2023-04-14T18:59:41.857Z,99240.00
2023-04-14T19:04:44.767Z,99235.72
2023-04-14T19:09:49.102Z,99232.88
2023-04-14T19:14:51.846Z,99232.16
2023-04-14T19:19:54.849Z,99232.28
2023-04-14T19:24:59.177Z,99226.78
2023-04-14T19:30:01.945Z,99231.44
2023-04-14T19:35:06.458Z,99227.63
2023-04-14T19:40:11.436Z,99228.03
2023-04-14T19:45:14.231Z,99226.34
2023-04-14T19:50:17.118Z,99217.53
2023-04-14T19:55:21.286Z,99217.66
2023-04-14T20:00:24.821Z,99221.38
2023-04-14T20:05:27.631Z,99219.94
2023-04-14T20:10:31.799Z,99210.41
2023-04-14T20:15:34.788Z,99205.75
2023-04-14T20:20:40.178Z,99205.00
2023-04-14T20:25:45.410Z,99211.56
2023-04-14T20:30:50.908Z,99201.03
2023-04-14T20:35:54.185Z,99198.34
2023-04-14T20:40:59.077Z,99191.38
2023-04-14T20:46:02.483Z,99185.25
2023-04-14T20:51:05.585Z,99182.41
2023-04-14T20:56:09.957Z,99184.13
2023-04-14T21:01:12.780Z,99184.84
2023-04-14T21:06:16.110Z,99177.91
2023-04-14T21:11:20.342Z,99173.19
2023-04-14T21:16:23.319Z,99167.34
2023-04-14T21:21:26.220Z,99164.94
2023-04-14T21:26:30.397Z,99157.69
2023-04-14T21:31:33.560Z,99162.63
2023-04-14T21:36:36.871Z,99153.25
2023-04-14T21:41:41.399Z,99152.78
2023-04-14T21:46:44.346Z,99158.59
2023-04-14T21:51:47.478Z,99161.84
2023-04-14T21:56:51.851Z,99160.00
2023-04-14T22:01:54.662Z,99160.56
2023-04-14T22:06:57.471Z,99165.66
2023-04-14T22:12:01.949Z,99160.97
2023-04-14T22:17:04.864Z,99151.41
2023-04-14T22:22:07.676Z,99148.38
2023-04-14T22:27:11.843Z,99137.56
2023-04-14T22:32:14.608Z,99140.88
2023-04-14T22:37:17.458Z,99136.44
2023-04-14T22:42:21.870Z,99133.75
2023-04-14T22:47:24.647Z,99132.34
2023-04-14T22:52:27.835Z,99125.47
2023-04-14T22:57:33.110Z,99127.56
2023-04-14T23:02:36.681Z,99125.66
2023-04-14T23:07:39.850Z,99127.56
2023-04-14T23:12:43.938Z,99119.41
2023-04-14T23:17:46.991Z,99122.78
2023-04-14T23:22:49.774Z,99127.63
2023-04-14T23:27:53.961Z,99113.16
2023-04-14T23:32:56.935Z,99109.44
2023-04-14T23:38:02.333Z,99111.13
2023-04-14T23:43:06.552Z,99097.59
2023-04-14T23:48:09.445Z,99093.50
2023-04-14T23:53:12.313Z,99084.53
2023-04-14T23:58:26.143Z,99075.88
